Time,TemperatureF,DewpointF,PressureIn,WindDirection,WindDirectionDegrees,WindSpeedMPH,WindSpeedGustMPH,Humidity,HourlyPrecipIn,Conditions,Clouds,dailyrainin,SoftwareType,DateUTC
2013-05-24 00:07:00,52.0,46.7,29.99,ESE,112,20.6,-999.0,82,-99.99,,,0.00,Acu-Link.com,2013-05-24 06:07:00,
2013-05-24 00:23:00,51.8,46.2,29.99,ESE,112,20.6,-999.0,81,-99.99,,,0.00,Acu-Link.com,2013-05-24 06:23:00,
2013-05-24 00:38:00,51.6,46.3,29.98,ESE,112,28.4,-999.0,82,-99.99,,,0.00,Acu-Link.com,2013-05-24 06:38:00,
2013-05-24 00:53:00,51.3,46.0,29.97,ESE,112,22.8,-999.0,82,-99.99,,,0.00,Acu-Link.com,2013-05-24 06:53:00,
2013-05-24 01:08:00,51.1,45.8,29.96,ESE,112,25.3,-999.0,82,-99.99,,,0.00,Acu-Link.com,2013-05-24 07:08:00,
2013-05-24 01:24:00,51.3,46.0,29.96,ESE,112,28.0,-999.0,82,-99.99,,,0.00,Acu-Link.com,2013-05-24 07:24:00,
2013-05-24 01:39:00,50.4,45.4,29.94,SSE,157,28.9,-999.0,83,-99.99,,,0.00,Acu-Link.com,2013-05-24 07:39:00,
2013-05-24 01:54:00,50.0,45.4,29.94,ESE,112,21.7,-999.0,84,-99.99,,,0.00,Acu-Link.com,2013-05-24 07:54:00,
2013-05-24 02:09:00,49.8,45.5,29.94,SSE,157,20.1,-999.0,85,-99.99,,,0.00,Acu-Link.com,2013-05-24 08:09:00,
2013-05-24 02:25:00,49.8,45.5,29.94,ESE,112,21.3,-999.0,85,-99.99,,,0.00,Acu-Link.com,2013-05-24 08:25:00,
2013-05-24 02:40:00,49.3,45.0,29.94,ESE,112,23.7,-999.0,85,-99.99,,,0.00,Acu-Link.com,2013-05-24 08:40:00,
2013-05-24 02:55:00,49.8,45.2,29.94,SE,135,21.3,-999.0,84,-99.99,,,0.00,Acu-Link.com,2013-05-24 08:55:00,
2013-05-24 03:10:00,49.8,44.9,29.93,ESE,112,31.5,-999.0,83,-99.99,,,0.00,Acu-Link.com,2013-05-24 09:10:00,
2013-05-24 03:25:00,49.8,44.5,29.92,ESE,112,28.0,-999.0,82,-99.99,,,0.00,Acu-Link.com,2013-05-24 09:25:00,
2013-05-24 03:40:00,49.5,44.2,29.90,SE,135,30.0,-999.0,82,-99.99,,,0.00,Acu-Link.com,2013-05-24 09:40:00,
2013-05-24 03:55:00,48.7,43.8,29.90,ESE,112,27.3,-999.0,83,-99.99,,,0.00,Acu-Link.com,2013-05-24 09:55:00,
2013-05-24 04:11:00,48.4,43.1,29.90,ESE,112,27.3,-999.0,82,-99.99,,,0.00,Acu-Link.com,2013-05-24 10:11:00,
2013-05-24 04:26:00,48.2,42.6,29.89,ESE,112,22.1,-999.0,81,-99.99,,,0.00,Acu-Link.com,2013-05-24 10:26:00,
2013-05-24 04:41:00,47.7,42.1,29.88,ESE,112,20.6,-999.0,81,-99.99,,,0.00,Acu-Link.com,2013-05-24 10:41:00,
2013-05-24 04:56:00,47.5,41.9,29.88,SE,135,16.1,-999.0,81,-99.99,,,0.00,Acu-Link.com,2013-05-24 10:56:00,
2013-05-24 05:11:00,47.3,41.8,29.89,SE,135,18.1,-999.0,81,-99.99,,,0.00,Acu-Link.com,2013-05-24 11:11:00,
2013-05-24 05:26:00,48.0,42.1,29.90,SE,135,19.7,-999.0,80,-99.99,,,0.00,Acu-Link.com,2013-05-24 11:26:00,
2013-05-24 05:42:00,48.7,42.2,29.89,ESE,112,23.3,-999.0,78,-99.99,,,0.00,Acu-Link.com,2013-05-24 11:42:00,
2013-05-24 05:57:00,49.5,42.9,29.89,ESE,112,23.3,-999.0,78,-99.99,,,0.00,Acu-Link.com,2013-05-24 11:57:00,
2013-05-24 06:12:00,49.5,42.6,29.88,ESE,112,23.3,-999.0,77,-99.99,,,0.00,Acu-Link.com,2013-05-24 12:12:00,
2013-05-24 06:27:00,49.6,43.1,29.88,ESE,112,21.3,-999.0,78,-99.99,,,0.00,Acu-Link.com,2013-05-24 12:27:00,
2013-05-24 06:43:00,49.8,43.2,29.89,ESE,112,25.3,-999.0,78,-99.99,,,0.00,Acu-Link.com,2013-05-24 12:43:00,
2013-05-24 06:58:00,49.6,43.4,29.88,ESE,112,20.6,-999.0,79,-99.99,,,0.00,Acu-Link.com,2013-05-24 12:58:00,
2013-05-24 07:13:00,50.4,44.1,29.87,SE,135,22.1,-999.0,79,-99.99,,,0.00,Acu-Link.com,2013-05-24 13:13:00,
2013-05-24 07:28:00,51.1,44.8,29.86,ESE,112,30.0,-999.0,79,-99.99,,,0.00,Acu-Link.com,2013-05-24 13:28:00,
2013-05-24 07:44:00,51.6,45.3,29.86,SE,135,24.8,-999.0,79,-99.99,,,0.00,Acu-Link.com,2013-05-24 13:44:00,
2013-05-24 07:59:00,52.0,45.7,29.87,ESE,112,21.3,-999.0,79,-99.99,,,0.00,Acu-Link.com,2013-05-24 13:59:00,
2013-05-24 08:14:00,52.5,46.2,29.87,ESE,112,21.7,-999.0,79,-99.99,,,0.00,Acu-Link.com,2013-05-24 14:14:00,
2013-05-24 08:30:00,53.6,47.2,29.85,SE,135,21.3,-999.0,79,-99.99,,,0.00,Acu-Link.com,2013-05-24 14:30:00,
2013-05-24 08:45:00,54.1,47.4,29.86,ESE,112,23.7,-999.0,78,-99.99,,,0.00,Acu-Link.com,2013-05-24 14:45:00,
2013-05-24 09:00:00,54.7,48.0,29.86,South,180,19.0,-999.0,78,-99.99,,,0.00,Acu-Link.com,2013-05-24 15:00:00,
2013-05-24 09:16:00,55.0,48.6,29.86,ESE,112,16.6,-999.0,79,-99.99,,,0.00,Acu-Link.com,2013-05-24 15:16:00,
2013-05-24 09:31:00,55.2,49.2,29.85,ESE,112,13.0,-999.0,80,-99.99,,,0.00,Acu-Link.com,2013-05-24 15:31:00,
2013-05-24 09:46:00,55.9,49.5,29.85,SSE,157,14.1,-999.0,79,-99.99,,,0.00,Acu-Link.com,2013-05-24 15:46:00,
2013-05-24 10:01:00,56.7,50.2,29.85,SE,135,12.5,-999.0,79,-99.99,,,0.00,Acu-Link.com,2013-05-24 16:01:00,
2013-05-24 10:16:00,57.7,50.6,29.85,SSE,157,14.5,-999.0,77,-99.99,,,0.00,Acu-Link.com,2013-05-24 16:16:00,
2013-05-24 10:31:00,58.3,51.1,29.85,ESE,112,21.7,-999.0,77,-99.99,,,0.00,Acu-Link.com,2013-05-24 16:31:00,
2013-05-24 10:47:00,60.3,52.3,29.84,South,180,19.0,-999.0,75,-99.99,,,0.00,Acu-Link.com,2013-05-24 16:47:00,
2013-05-24 11:02:00,61.0,52.6,29.84,SSE,157,17.0,-999.0,74,-99.99,,,0.00,Acu-Link.com,2013-05-24 17:02:00,
2013-05-24 11:17:00,62.2,53.5,29.84,East,90,20.6,-999.0,73,-99.99,,,0.00,Acu-Link.com,2013-05-24 17:17:00,
2013-05-24 11:33:00,62.4,54.0,29.85,SE,135,16.1,-999.0,74,-99.99,,,0.00,Acu-Link.com,2013-05-24 17:33:00,
2013-05-24 11:48:00,64.0,55.2,29.84,SSE,157,13.0,-999.0,73,-99.99,,,0.00,Acu-Link.com,2013-05-24 17:48:00,
2013-05-24 12:03:00,63.5,55.1,29.84,South,180,11.9,-999.0,74,-99.99,,,0.00,Acu-Link.com,2013-05-24 18:03:00,
2013-05-24 12:19:00,63.7,55.2,29.85,South,180,14.5,-999.0,74,-99.99,,,0.00,Acu-Link.com,2013-05-24 18:19:00,
2013-05-24 12:34:00,63.9,55.4,29.85,South,180,16.6,-999.0,74,-99.99,,,0.00,Acu-Link.com,2013-05-24 18:34:00,
2013-05-24 12:49:00,65.1,56.2,29.84,South,180,20.1,-999.0,73,-99.99,,,0.00,Acu-Link.com,2013-05-24 18:49:00,
2013-05-24 13:04:00,66.4,56.7,29.84,SW,225,9.8,-999.0,71,-99.99,,,0.00,Acu-Link.com,2013-05-24 19:04:00,
2013-05-24 13:19:00,66.2,56.9,29.85,SSW,202,5.8,-999.0,72,-99.99,,,0.00,Acu-Link.com,2013-05-24 19:19:00,
2013-05-24 13:35:00,64.8,57.0,29.85,South,180,11.0,-999.0,76,-99.99,,,0.00,Acu-Link.com,2013-05-24 19:35:00,
2013-05-24 13:50:00,63.1,57.6,29.86,SW,225,6.7,-999.0,82,-99.99,,,0.00,Acu-Link.com,2013-05-24 19:50:00,
2013-05-24 14:05:00,61.7,58.7,29.86,SSW,202,4.7,-999.0,90,-99.99,,,0.00,Acu-Link.com,2013-05-24 20:05:00,
2013-05-24 14:21:00,62.1,59.1,29.86,NNW,337,6.3,-999.0,90,-99.99,,,0.00,Acu-Link.com,2013-05-24 20:21:00,
2013-05-24 14:36:00,62.1,58.1,29.86,NW,315,5.1,-999.0,87,-99.99,,,0.00,Acu-Link.com,2013-05-24 20:36:00,
2013-05-24 14:51:00,64.0,58.8,29.86,WNW,292,3.8,-999.0,83,-99.99,,,0.00,Acu-Link.com,2013-05-24 20:51:00,
2013-05-24 15:07:00,67.8,58.8,29.86,NW,315,6.7,-999.0,73,-99.99,,,0.00,Acu-Link.com,2013-05-24 21:07:00,
2013-05-24 15:22:00,68.2,58.4,29.86,WNW,292,12.5,-999.0,71,-99.99,,,0.00,Acu-Link.com,2013-05-24 21:22:00,
2013-05-24 15:37:00,67.8,58.8,29.87,WNW,292,6.3,-999.0,73,-99.99,,,0.00,Acu-Link.com,2013-05-24 21:37:00,
2013-05-24 15:52:00,69.3,59.4,29.87,NW,315,11.4,-999.0,71,-99.99,,,0.00,Acu-Link.com,2013-05-24 21:52:00,
2013-05-24 16:07:00,68.9,59.1,29.87,WNW,292,9.8,-999.0,71,-99.99,,,0.00,Acu-Link.com,2013-05-24 22:07:00,
2013-05-24 16:23:00,68.9,59.1,29.88,NNW,337,8.9,-999.0,71,-99.99,,,0.00,Acu-Link.com,2013-05-24 22:23:00,
2013-05-24 16:38:00,68.5,58.4,29.87,NNW,337,8.3,-999.0,70,-99.99,,,0.00,Acu-Link.com,2013-05-24 22:38:00,
2013-05-24 16:53:00,68.2,57.2,29.88,ESE,112,7.4,-999.0,68,-99.99,,,0.00,Acu-Link.com,2013-05-24 22:53:00,
2013-05-24 17:09:00,70.3,57.1,29.88,NNW,337,6.3,-999.0,63,-99.99,,,0.00,Acu-Link.com,2013-05-24 23:09:00,
2013-05-24 17:24:00,70.7,56.1,29.88,NW,315,2.2,-999.0,60,-99.99,,,0.00,Acu-Link.com,2013-05-24 23:24:00,
2013-05-24 17:39:00,71.2,53.7,29.88,NNW,337,11.0,-999.0,54,-99.99,,,0.00,Acu-Link.com,2013-05-24 23:39:00,
2013-05-24 17:55:00,70.7,53.7,29.89,NNW,337,5.8,-999.0,55,-99.99,,,0.00,Acu-Link.com,2013-05-24 23:55:00,
2013-05-24 18:10:00,69.4,54.0,29.88,North,0,6.3,-999.0,58,-99.99,,,0.00,Acu-Link.com,2013-05-25 00:10:00,
2013-05-24 18:25:00,70.9,52.9,29.89,NW,315,4.7,-999.0,53,-99.99,,,0.00,Acu-Link.com,2013-05-25 00:25:00,
2013-05-24 18:40:00,70.5,46.9,29.89,NNW,337,6.7,-999.0,43,-99.99,,,0.00,Acu-Link.com,2013-05-25 00:40:00,
2013-05-24 18:55:00,68.9,44.2,29.90,NNW,337,7.8,-999.0,41,-99.99,,,0.00,Acu-Link.com,2013-05-25 00:55:00,
2013-05-24 19:11:00,68.9,45.5,29.90,WNW,292,6.3,-999.0,43,-99.99,,,0.00,Acu-Link.com,2013-05-25 01:11:00,
2013-05-24 19:26:00,68.9,46.7,29.90,NNW,337,3.1,-999.0,45,-99.99,,,0.00,Acu-Link.com,2013-05-25 01:26:00,
2013-05-24 19:41:00,68.9,47.8,29.91,NNE,22,0.0,-999.0,47,-99.99,,,0.00,Acu-Link.com,2013-05-25 01:41:00,
2013-05-24 19:57:00,69.6,47.9,29.91,WNW,292,2.2,-999.0,46,-99.99,,,0.00,Acu-Link.com,2013-05-25 01:57:00,
2013-05-24 20:12:00,63.0,47.9,29.92,East,90,2.7,-999.0,58,-99.99,,,0.00,Acu-Link.com,2013-05-25 02:12:00,
2013-05-24 20:27:00,62.2,47.3,29.92,NE,45,1.6,-999.0,58,-99.99,,,0.00,Acu-Link.com,2013-05-25 02:27:00,
2013-05-24 20:43:00,60.4,47.4,29.92,NE,45,0.0,-999.0,62,-99.99,,,0.00,Acu-Link.com,2013-05-25 02:43:00,
2013-05-24 20:58:00,58.1,47.2,29.93,ENE,67,2.7,-999.0,67,-99.99,,,0.00,Acu-Link.com,2013-05-25 02:58:00,
2013-05-24 21:13:00,57.4,49.5,29.93,East,90,3.1,-999.0,75,-99.99,,,0.00,Acu-Link.com,2013-05-25 03:13:00,
2013-05-24 21:28:00,55.9,53.3,29.93,East,90,4.7,-999.0,91,-99.99,,,0.00,Acu-Link.com,2013-05-25 03:28:00,
2013-05-24 21:43:00,55.4,53.7,29.94,ESE,112,0.0,-999.0,94,-99.99,,,0.00,Acu-Link.com,2013-05-25 03:43:00,
2013-05-24 21:59:00,54.5,53.9,29.94,East,90,2.2,-999.0,98,-99.99,,,0.00,Acu-Link.com,2013-05-25 03:59:00,
2013-05-24 22:14:00,53.6,53.3,29.94,SE,135,2.2,-999.0,99,-99.99,,,0.00,Acu-Link.com,2013-05-25 04:14:00,
2013-05-24 22:29:00,52.7,52.4,29.96,WSW,247,0.0,-999.0,99,-99.99,,,0.00,Acu-Link.com,2013-05-25 04:29:00,
2013-05-24 22:44:00,52.3,52.1,29.95,East,90,2.7,-999.0,99,-99.99,,,0.00,Acu-Link.com,2013-05-25 04:44:00,
2013-05-24 22:59:00,51.4,51.2,29.95,NE,45,2.7,-999.0,99,-99.99,,,0.00,Acu-Link.com,2013-05-25 04:59:00,
2013-05-24 23:15:00,50.9,50.6,29.95,ESE,112,2.7,-999.0,99,-99.99,,,0.00,Acu-Link.com,2013-05-25 05:15:00,
2013-05-24 23:30:00,50.4,50.1,29.97,ENE,67,2.2,-999.0,99,-99.99,,,0.00,Acu-Link.com,2013-05-25 05:30:00,
2013-05-24 23:45:00,50.4,50.1,29.97,NNE,22,1.6,-999.0,99,-99.99,,,0.00,Acu-Link.com,2013-05-25 05:45:00,